hwlogo.jpg (8581 bytes)
Home Your Weather Products Services Weather On Your Site Contact
HW Version Logo
Weather Info
Your Weather (Options)
Canadian Weather
International Weather
Enter your " Place, State", US Zip Code or ICAO:  
Forecast Information Radar Information
Muskoka, Ontario, Canada  Lat: 44.97N, Lon: 79.3W
ICAO Used: CYQA
Current Conditions
Updated: 10:20 AM EST TUE FEB 20 2018
Sun & Moon Information
Light Rain
Light Rain
Temp: 5°C
Humidity: 100%
Wind Speed: SE 9 MPH
Barometer: 1014 mb
Dewpoint: 5°C
Heat Index: 5°C
Wind Chill: 2°C
Civil Twilight: 6:41 AM EST Moon Phase:
Waxing Crescent Moon
Sunrise: 7:11 AM EST
Sunset: 5:50 PM EST
Civil Twilight: 6:20 PM EST
Forecast for Muskoka, ON:
(Forecast based on TAF for )
0700 PM EST TUE FEB 20 2018
  
AFTERNOON EVENING OVERNIGHT
Fair Light
Rain
Light
Rain
ZoneCast:
Dated: 0700 PM EST TUE FEB 20 2018
Afternoon...Becoming fair with winds from the south at 12 mph. Changing to light rain with winds from the south at 12 mph.

Evening...Light rain with winds from the south at 12 mph.

Overnight...Light rain with winds from the south at 12 mph.

Original Encoded TAF:
Dated: 0700 PM EST TUE FEB 20 2018
2018/02/20 13:48
TAF TAF CYQA 201246Z 2013/2101 12005KT 4SM RA BR OVC004 
      TEMPO 2013/2020 6SM -RA BR OVC008 
      BECMG 2018/2020 18010KT 
     FM202000 18010KT 1/2SM -RA FG VV002 
      RMK FCST BASED ON AUTO OBS. NXT FCST BY 202000Z